Time;durP1;ratioP1;P1;durP2;ratioP2;P2;SDS_P1;SDS_P2;PMS_P1;PMS_P2;Temp;Humidity;BMP_temperature;BMP_pressure;BME280_temperature;BME280_humidity;BME280_pressure;Samples;Min_cycle;Max_cycle;Signal;HPM_P1;HPM_P2
2022/12/23 00:01:07;;;;;;;52.25;25.60;;;7.30;99.90;;;;;;5022119;28;20120;-80
2022/12/23 00:03:33;;;;;;;47.78;24.90;;;7.30;99.90;;;;;;5019278;28;20065;-80
2022/12/23 00:05:59;;;;;;;46.13;22.83;;;7.30;99.90;;;;;;5029210;28;20073;-81
2022/12/23 00:08:26;;;;;;;44.45;22.63;;;7.30;99.90;;;;;;5013598;28;20042;-81
2022/12/23 00:10:53;;;;;;;48.95;23.63;;;7.30;99.90;;;;;;5018400;28;20485;-80
2022/12/23 00:16:12;;;;;;;51.83;24.98;;;7.30;99.90;;;;;;5010673;28;20381;-81
2022/12/23 00:18:38;;;;;;;54.10;26.58;;;7.70;99.90;;;;;;5021814;28;20395;-81
2022/12/23 00:21:07;;;;;;;48.50;24.35;;;7.30;99.90;;;;;;5010529;28;20057;-81
2022/12/23 00:23:34;;;;;;;48.33;23.30;;;7.30;99.90;;;;;;5017619;28;20080;-81
2022/12/23 00:26:03;;;;;;;45.45;23.42;;;7.30;99.90;;;;;;5011261;28;20045;-81
2022/12/23 00:28:29;;;;;;;50.08;24.77;;;7.30;99.90;;;;;;5013804;28;20085;-81
2022/12/23 00:31:00;;;;;;;58.75;26.70;;;7.30;99.90;;;;;;5017642;28;20586;-81
2022/12/23 00:33:33;;;;;;;53.35;25.02;;;7.30;99.90;;;;;;5019433;28;20038;-81
2022/12/23 00:35:58;;;;;;;48.30;25.02;;;7.30;99.90;;;;;;5011986;28;20048;-81
2022/12/23 00:44:00;;;;;;;47.85;23.10;;;7.30;99.90;;;;;;5012876;28;20129;-81
2022/12/23 00:46:25;;;;;;;45.33;23.20;;;7.30;99.90;;;;;;5010223;28;20052;-81
2022/12/23 00:51:36;;;;;;;45.50;23.90;;;6.90;99.90;;;;;;5011339;28;20046;-81
2022/12/23 00:54:02;;;;;;;47.58;23.35;;;7.30;99.90;;;;;;5013060;28;20037;-81
2022/12/23 00:56:28;;;;;;;46.20;22.23;;;7.30;99.90;;;;;;5018624;28;20080;-81
2022/12/23 00:58:54;;;;;;;45.92;23.67;;;7.30;99.90;;;;;;5023117;28;20033;-81
2022/12/23 01:06:48;;;;;;;59.58;28.83;;;7.30;99.90;;;;;;5022922;28;20057;-81
2022/12/23 01:09:14;;;;;;;54.35;24.98;;;7.30;99.90;;;;;;5003891;28;20030;-81
2022/12/23 01:11:40;;;;;;;51.58;25.55;;;7.30;99.90;;;;;;5018206;28;20081;-80
2022/12/23 01:14:08;;;;;;;60.05;28.17;;;7.30;99.90;;;;;;5018206;28;20053;-80
2022/12/23 01:16:36;;;;;;;53.38;25.63;;;7.80;99.90;;;;;;5019438;28;20049;-80
2022/12/23 01:19:01;;;;;;;54.20;25.15;;;7.30;99.90;;;;;;5021496;28;20380;-81
2022/12/23 01:21:27;;;;;;;60.03;28.27;;;7.30;99.90;;;;;;5012409;28;20649;-81
2022/12/23 01:23:52;;;;;;;49.88;23.65;;;7.30;99.90;;;;;;5012652;28;20121;-81
2022/12/23 01:26:18;;;;;;;54.95;25.13;;;7.30;99.90;;;;;;5019389;28;20041;-80
2022/12/23 01:28:43;;;;;;;53.67;24.75;;;7.30;99.90;;;;;;5016490;28;20088;-80
2022/12/23 01:31:09;;;;;;;46.58;22.75;;;7.30;99.90;;;;;;5019758;28;20103;-80
2022/12/23 01:33:35;;;;;;;47.88;23.05;;;7.30;99.90;;;;;;5019057;28;20045;-80
2022/12/23 01:36:02;;;;;;;55.13;25.58;;;7.30;99.90;;;;;;5013357;28;20041;-81
2022/12/23 01:38:29;;;;;;;47.75;22.05;;;7.30;99.90;;;;;;5021078;28;20038;-80
2022/12/23 01:40:55;;;;;;;52.45;23.50;;;7.30;99.90;;;;;;5022628;28;20050;-80
2022/12/23 01:43:21;;;;;;;46.38;22.40;;;7.30;99.90;;;;;;5015766;28;20045;-80
2022/12/23 01:45:46;;;;;;;48.60;23.77;;;7.30;99.90;;;;;;5018263;28;20060;-81
2022/12/23 01:48:25;;;;;;;46.97;22.48;;;7.30;99.90;;;;;;5014824;28;20432;-81
2022/12/23 01:51:00;;;;;;;47.05;24.02;;;7.30;99.90;;;;;;5021265;28;20108;-81
2022/12/23 01:53:32;;;;;;;44.40;22.15;;;7.30;99.90;;;;;;5013745;28;20038;-81
2022/12/23 01:56:43;;;;;;;52.00;23.80;;;7.30;99.90;;;;;;5014672;28;20132;-81
2022/12/23 02:03:41;;;;;;;48.15;22.33;;;7.30;99.90;;;;;;5013185;28;20133;-81
2022/12/23 02:04:43;;;;;;;;;;;7.30;99.90;;;;;;5017953;28;20046;-80
2022/12/23 02:09:54;;;;;;;48.15;23.02;;;7.30;99.90;;;;;;5013105;28;20050;-80
2022/12/23 02:12:26;;;;;;;54.97;25.63;;;7.30;99.90;;;;;;5019961;28;20050;-80
2022/12/23 02:18:16;;;;;;;56.28;26.92;;;7.20;99.90;;;;;;5012849;28;20049;-80
2022/12/23 02:20:58;;;;;;;53.83;26.02;;;7.20;99.90;;;;;;5012180;28;20103;-80
2022/12/23 02:23:48;;;;;;;61.95;27.25;;;7.20;99.90;;;;;;5018347;28;20712;-80
2022/12/23 02:26:41;;;;;;;53.10;25.20;;;7.20;99.90;;;;;;5015931;28;20048;-80
2022/12/23 02:29:19;;;;;;;66.07;27.15;;;7.20;99.90;;;;;;5018980;28;20073;-81
2022/12/23 02:32:05;;;;;;;59.63;24.92;;;7.20;99.90;;;;;;5019988;28;20033;-81
2022/12/23 02:34:51;;;;;;;61.30;26.75;;;7.20;99.90;;;;;;5016973;28;20034;-81
2022/12/23 02:37:27;;;;;;;73.35;29.00;;;7.20;99.90;;;;;;5013862;28;20124;-81
2022/12/23 02:40:30;;;;;;;77.28;28.75;;;7.20;99.90;;;;;;5016975;28;20061;-81
2022/12/23 02:43:19;;;;;;;59.70;25.10;;;7.20;99.90;;;;;;5035564;28;20053;-81
2022/12/23 02:45:53;;;;;;;88.95;31.58;;;7.20;99.90;;;;;;5013894;28;20670;-81
2022/12/23 02:48:30;;;;;;;82.93;31.42;;;7.20;99.90;;;;;;5016551;28;20057;-80
2022/12/23 02:50:57;;;;;;;64.65;26.55;;;7.20;99.90;;;;;;5015257;28;20073;-81
2022/12/23 02:53:42;;;;;;;76.88;28.73;;;7.20;99.90;;;;;;5022402;28;20048;-80
2022/12/23 02:56:09;;;;;;;65.47;28.60;;;7.20;99.90;;;;;;5017080;28;20054;-81
2022/12/23 02:58:42;;;;;;;73.78;28.75;;;7.20;99.90;;;;;;5021280;28;20041;-82
2022/12/23 03:01:11;;;;;;;68.20;29.23;;;7.20;99.90;;;;;;5013476;28;20045;-81
2022/12/23 03:03:38;;;;;;;72.80;29.10;;;7.20;99.90;;;;;;5014341;28;20034;-81
2022/12/23 03:06:40;;;;;;;85.80;31.77;;;7.20;99.90;;;;;;5019843;28;20105;-81
2022/12/23 03:09:07;;;;;;;94.75;31.58;;;7.20;99.90;;;;;;5015308;28;20050;-81
2022/12/23 03:11:49;;;;;;;78.97;30.98;;;7.20;99.90;;;;;;5019185;28;20033;-81
2022/12/23 03:14:39;;;;;;;79.25;29.70;;;7.20;99.90;;;;;;5013496;28;20041;-81
2022/12/23 03:17:28;;;;;;;76.03;30.73;;;7.20;99.90;;;;;;5014738;28;20488;-81
2022/12/23 03:20:16;;;;;;;71.00;28.77;;;7.20;99.90;;;;;;5017994;28;20491;-81
2022/12/23 03:22:51;;;;;;;90.38;32.67;;;7.30;99.90;;;;;;5012233;28;20083;-80
2022/12/23 03:25:37;;;;;;;88.30;30.60;;;7.20;99.90;;;;;;5015218;28;20516;-81
2022/12/23 03:28:13;;;;;;;86.70;31.02;;;7.20;99.90;;;;;;5025547;28;20112;-81
2022/12/23 03:30:42;;;;;;;103.57;32.88;;;7.20;99.90;;;;;;5006692;28;20038;-81
2022/12/23 03:33:34;;;;;;;79.95;28.95;;;7.20;99.90;;;;;;5018371;28;20587;-81
2022/12/23 03:36:09;;;;;;;112.55;33.67;;;7.20;99.90;;;;;;5022663;28;20038;-81
2022/12/23 03:38:39;;;;;;;68.57;26.70;;;7.20;99.90;;;;;;5026433;28;20144;-81
2022/12/23 03:41:11;;;;;;;103.72;33.15;;;7.10;99.90;;;;;;5009833;28;20050;-81
2022/12/23 03:44:04;;;;;;;95.70;30.17;;;7.10;99.90;;;;;;5025859;28;20044;-81
2022/12/23 03:46:52;;;;;;;91.13;31.08;;;7.10;99.90;;;;;;5017479;28;20450;-81
2022/12/23 03:49:25;;;;;;;100.95;32.53;;;7.10;99.90;;;;;;5008179;28;20145;-81
2022/12/23 03:52:06;;;;;;;78.25;28.38;;;7.10;99.90;;;;;;5010918;28;20485;-81
2022/12/23 03:54:39;;;;;;;76.15;29.15;;;7.10;99.90;;;;;;5010613;28;20112;-81
2022/12/23 03:57:07;;;;;;;89.87;31.30;;;7.10;99.90;;;;;;5018213;28;20052;-80
2022/12/23 03:59:44;;;;;;;77.95;29.55;;;7.40;99.90;;;;;;5014445;28;20034;-80
2022/12/23 04:02:26;;;;;;;85.07;32.10;;;7.10;99.90;;;;;;5018943;28;20034;-80
2022/12/23 04:05:13;;;;;;;76.13;29.88;;;7.10;99.90;;;;;;5012074;28;20120;-80
2022/12/23 04:07:45;;;;;;;72.00;26.92;;;7.10;99.90;;;;;;5014463;28;20548;-80
2022/12/23 04:10:12;;;;;;;81.95;29.80;;;7.10;99.90;;;;;;5021704;28;20053;-80
2022/12/23 04:12:39;;;;;;;69.30;26.77;;;7.10;99.90;;;;;;5015388;28;20123;-80
2022/12/23 04:15:05;;;;;;;99.25;32.90;;;7.70;99.90;;;;;;5018638;28;20120;-80
2022/12/23 04:17:32;;;;;;;94.88;33.38;;;7.10;99.90;;;;;;5010521;28;20073;-80
2022/12/23 04:19:57;;;;;;;86.13;32.38;;;7.10;99.90;;;;;;5008880;28;20093;-81
2022/12/23 04:22:23;;;;;;;82.15;31.42;;;7.10;99.90;;;;;;5015630;28;20033;-81
2022/12/23 04:24:49;;;;;;;74.25;28.00;;;7.10;99.90;;;;;;5021131;28;20064;-81
2022/12/23 04:27:15;;;;;;;76.57;27.90;;;7.10;99.90;;;;;;5014740;28;20053;-81
2022/12/23 04:29:41;;;;;;;71.53;29.27;;;7.10;99.90;;;;;;5009769;28;20041;-81
2022/12/23 04:32:07;;;;;;;79.90;27.70;;;7.00;99.90;;;;;;5019681;28;20400;-81
2022/12/23 04:34:33;;;;;;;74.38;27.15;;;7.10;99.90;;;;;;5017312;28;20488;-81
2022/12/23 04:36:59;;;;;;;79.32;26.92;;;7.10;99.90;;;;;;5018740;28;20491;-81
2022/12/23 04:39:24;;;;;;;74.53;27.55;;;7.10;99.90;;;;;;5015971;28;20412;-80
2022/12/23 04:41:50;;;;;;;63.47;24.67;;;7.10;99.90;;;;;;5021227;28;20183;-81
2022/12/23 04:44:16;;;;;;;68.68;24.65;;;7.00;99.90;;;;;;5015889;28;20112;-81
2022/12/23 04:46:41;;;;;;;68.35;24.67;;;7.00;99.90;;;;;;5014443;28;20049;-81
2022/12/23 04:49:07;;;;;;;97.03;30.33;;;7.00;99.90;;;;;;5014152;28;20034;-81
2022/12/23 04:51:33;;;;;;;83.75;27.48;;;7.00;99.90;;;;;;5017039;28;20527;-81
2022/12/23 04:53:58;;;;;;;82.10;28.52;;;7.00;99.90;;;;;;5011947;28;20127;-81
2022/12/23 04:56:24;;;;;;;77.93;26.35;;;7.00;99.90;;;;;;5013682;28;20029;-81
2022/12/23 04:58:50;;;;;;;102.40;30.60;;;7.00;99.90;;;;;;5015840;28;20391;-81
2022/12/23 05:01:15;;;;;;;104.95;30.70;;;7.00;99.90;;;;;;5016032;28;20041;-81
2022/12/23 05:03:41;;;;;;;91.28;30.05;;;7.00;99.90;;;;;;5018076;28;20429;-81
2022/12/23 05:06:07;;;;;;;83.40;28.38;;;7.00;99.90;;;;;;5010825;28;20454;-80
2022/12/23 05:08:35;;;;;;;81.63;28.42;;;7.00;99.90;;;;;;5011233;28;20038;-80
2022/12/23 05:11:01;;;;;;;106.63;31.63;;;7.00;99.90;;;;;;5017059;28;20042;-81
2022/12/23 05:13:26;;;;;;;107.78;31.95;;;7.00;99.90;;;;;;5017653;28;20112;-81
2022/12/23 05:15:53;;;;;;;113.90;32.25;;;7.00;99.90;;;;;;5015022;28;20423;-81
2022/12/23 05:18:20;;;;;;;81.63;26.35;;;7.00;99.90;;;;;;5014708;28;20488;-81
2022/12/23 05:20:46;;;;;;;104.45;30.80;;;7.00;99.90;;;;;;5017779;28;20041;-81
2022/12/23 05:23:12;;;;;;;99.20;31.55;;;6.90;99.90;;;;;;5001634;28;20045;-81
2022/12/23 05:25:38;;;;;;;74.38;26.40;;;6.90;99.90;;;;;;5035128;28;20128;-81
2022/12/23 05:28:06;;;;;;;89.55;30.02;;;6.90;99.90;;;;;;5013439;28;21076;-81
2022/12/23 05:30:32;;;;;;;119.18;33.15;;;6.90;99.90;;;;;;5010385;28;20388;-81
2022/12/23 05:32:58;;;;;;;82.35;28.60;;;6.90;99.90;;;;;;5008506;28;20046;-81
2022/12/23 05:35:25;;;;;;;97.40;31.88;;;6.90;99.90;;;;;;5018167;28;20057;-81
2022/12/23 05:37:51;;;;;;;100.55;31.15;;;6.90;99.90;;;;;;5021349;28;20041;-81
2022/12/23 05:40:17;;;;;;;100.35;32.33;;;6.90;99.90;;;;;;5019237;28;20115;-81
2022/12/23 05:42:44;;;;;;;153.00;36.33;;;6.80;99.90;;;;;;5020936;28;20108;-80
2022/12/23 05:45:10;;;;;;;102.97;30.45;;;6.80;99.90;;;;;;5023315;28;20038;-80
2022/12/23 05:47:36;;;;;;;130.13;35.08;;;7.00;99.90;;;;;;5017860;28;20527;-81
2022/12/23 05:50:02;;;;;;;94.70;31.02;;;6.80;99.90;;;;;;5018662;28;20052;-81
2022/12/23 05:52:28;;;;;;;89.25;30.48;;;6.80;99.90;;;;;;5012993;28;20072;-80
2022/12/23 05:54:53;;;;;;;92.28;28.80;;;6.80;99.90;;;;;;5024657;28;20069;-80
2022/12/23 05:57:19;;;;;;;87.63;27.10;;;6.80;99.90;;;;;;5012701;28;20038;-80
2022/12/23 05:59:45;;;;;;;78.28;27.55;;;6.80;99.90;;;;;;5014282;28;20752;-80
2022/12/23 06:02:11;;;;;;;125.95;29.92;;;6.90;99.90;;;;;;5017249;28;20038;-80
2022/12/23 06:04:36;;;;;;;73.20;26.13;;;6.90;99.90;;;;;;5020528;28;20041;-79
2022/12/23 06:07:02;;;;;;;104.68;27.88;;;6.90;99.90;;;;;;5021706;28;20042;-80
2022/12/23 06:09:27;;;;;;;74.22;26.67;;;6.90;99.90;;;;;;5021226;28;20045;-79
2022/12/23 06:11:53;;;;;;;72.53;25.23;;;6.90;99.90;;;;;;5022778;28;20423;-80
2022/12/23 06:14:19;;;;;;;99.57;29.42;;;6.90;99.90;;;;;;5026806;28;20037;-79
2022/12/23 06:16:44;;;;;;;92.45;26.98;;;6.90;99.90;;;;;;5024233;28;20105;-78
2022/12/23 06:19:10;;;;;;;70.20;23.17;;;6.90;99.90;;;;;;5015917;28;20080;-79
2022/12/23 06:21:35;;;;;;;64.97;23.15;;;6.80;99.90;;;;;;5019255;28;20069;-80
2022/12/23 06:24:01;;;;;;;71.18;23.70;;;6.80;99.90;;;;;;5023539;28;20682;-80
2022/12/23 06:26:27;;;;;;;149.50;31.63;;;6.80;99.90;;;;;;5011663;28;20046;-80
2022/12/23 06:28:53;;;;;;;225.63;32.25;;;7.10;99.90;;;;;;5018381;28;20042;-79
2022/12/23 06:31:18;;;;;;;210.48;32.83;;;6.80;99.90;;;;;;5012914;28;20037;-80
2022/12/23 06:33:44;;;;;;;148.32;29.83;;;6.90;99.90;;;;;;5018257;28;20736;-79
2022/12/23 06:36:10;;;;;;;189.27;28.95;;;6.70;99.90;;;;;;5022428;28;20106;-82
2022/12/23 06:38:35;;;;;;;214.52;31.13;;;6.70;99.90;;;;;;5015232;28;20035;-82
2022/12/23 06:41:01;;;;;;;281.65;31.95;;;6.70;99.90;;;;;;5021920;28;21033;-84
2022/12/23 06:43:27;;;;;;;281.35;31.75;;;6.60;99.90;;;;;;5014414;28;20037;-84
2022/12/23 06:45:52;;;;;;;224.32;26.52;;;6.60;99.90;;;;;;4997975;28;20060;-81
2022/12/23 06:48:19;;;;;;;444.27;39.35;;;6.60;99.90;;;;;;5024621;28;20033;-81
2022/12/23 06:50:45;;;;;;;331.00;31.17;;;6.60;99.90;;;;;;5021468;28;20045;-81
2022/12/23 06:53:11;;;;;;;164.43;23.45;;;6.60;99.90;;;;;;5021070;28;20048;-83
2022/12/23 06:55:37;;;;;;;384.42;34.45;;;6.50;99.90;;;;;;5019504;28;20037;-83
2022/12/23 06:58:04;;;;;;;366.27;33.58;;;6.50;99.90;;;;;;5026219;28;20044;-83
2022/12/23 07:00:29;;;;;;;243.68;24.52;;;6.50;99.90;;;;;;5006179;28;20049;-83
2022/12/23 07:02:55;;;;;;;321.10;31.73;;;6.50;99.90;;;;;;5015989;28;20046;-81
2022/12/23 07:05:21;;;;;;;235.68;26.20;;;6.50;99.90;;;;;;5021567;28;20033;-81
2022/12/23 07:07:47;;;;;;;233.43;22.13;;;6.50;99.90;;;;;;5016809;28;20104;-81
2022/12/23 07:10:12;;;;;;;361.83;33.25;;;6.50;99.90;;;;;;5016660;28;20038;-81
2022/12/23 07:12:38;;;;;;;304.05;28.55;;;6.50;99.90;;;;;;5020718;28;20037;-80
2022/12/23 07:15:05;;;;;;;257.20;26.73;;;6.60;99.90;;;;;;5015285;28;20116;-82
2022/12/23 07:17:31;;;;;;;311.90;28.67;;;6.50;99.90;;;;;;5015306;28;20042;-83
2022/12/23 07:19:56;;;;;;;315.95;31.10;;;6.60;99.90;;;;;;5011538;28;20057;-85
2022/12/23 07:22:22;;;;;;;153.85;21.33;;;6.50;99.90;;;;;;5016356;28;20030;-84
2022/12/23 07:24:48;;;;;;;118.00;19.75;;;6.50;99.90;;;;;;5017661;28;20121;-84
2022/12/23 07:27:13;;;;;;;202.82;23.15;;;6.60;99.90;;;;;;5012151;28;20049;-83
2022/12/23 07:29:39;;;;;;;205.20;26.80;;;6.60;99.90;;;;;;5023251;28;20033;-83
2022/12/23 07:32:05;;;;;;;75.60;18.38;;;6.60;99.90;;;;;;5023064;28;20487;-82
2022/12/23 07:34:30;;;;;;;119.25;20.08;;;6.60;99.90;;;;;;5018434;28;20038;-81
2022/12/23 07:36:56;;;;;;;60.72;16.90;;;6.60;99.90;;;;;;5014661;28;20492;-82
2022/12/23 07:39:21;;;;;;;56.25;17.70;;;6.60;99.90;;;;;;5021374;28;20129;-82
2022/12/23 07:41:47;;;;;;;119.03;21.90;;;6.60;99.90;;;;;;5017931;28;20053;-82
2022/12/23 07:44:13;;;;;;;77.80;18.02;;;6.60;99.90;;;;;;5011009;28;20037;-82
2022/12/23 07:46:39;;;;;;;45.10;15.48;;;6.60;99.90;;;;;;5015118;28;20040;-82
2022/12/23 07:49:04;;;;;;;63.38;18.92;;;6.50;99.90;;;;;;5020764;28;20037;-82
2022/12/23 07:51:30;;;;;;;64.53;17.83;;;6.50;99.90;;;;;;5034647;28;20484;-82
2022/12/23 07:53:56;;;;;;;66.65;16.92;;;6.50;99.90;;;;;;5016580;28;20120;-81
2022/12/23 07:56:22;;;;;;;32.80;14.55;;;6.50;99.90;;;;;;5012397;28;20034;-81
2022/12/23 07:58:49;;;;;;;44.28;16.13;;;6.50;99.90;;;;;;5011323;28;20180;-81
2022/12/23 08:01:15;;;;;;;58.28;16.60;;;6.60;99.90;;;;;;5002756;28;20038;-81
2022/12/23 08:03:40;;;;;;;64.32;18.00;;;6.60;99.90;;;;;;5021630;28;20043;-81
2022/12/23 08:06:11;;;;;;;52.20;16.65;;;6.60;99.90;;;;;;5018046;28;20065;-81
2022/12/23 08:08:37;;;;;;;63.42;16.52;;;6.60;99.90;;;;;;5024194;28;20030;-81
2022/12/23 08:11:05;;;;;;;107.75;19.50;;;6.60;99.90;;;;;;5012709;28;20042;-81
2022/12/23 08:13:33;;;;;;;106.05;20.27;;;6.60;99.90;;;;;;5022496;28;20120;-81
2022/12/23 08:16:00;;;;;;;93.85;18.35;;;6.60;99.90;;;;;;5016959;28;20045;-81
2022/12/23 08:18:28;;;;;;;56.85;16.73;;;6.60;99.90;;;;;;5015382;28;20129;-81
2022/12/23 08:20:59;;;;;;;43.40;15.93;;;6.60;99.90;;;;;;5016912;28;20037;-81
2022/12/23 08:23:25;;;;;;;45.05;14.95;;;6.60;99.90;;;;;;5030929;28;20038;-81
2022/12/23 08:25:59;;;;;;;71.60;16.55;;;6.60;99.90;;;;;;5019625;28;20126;-82
2022/12/23 08:28:25;;;;;;;112.87;17.20;;;6.60;99.90;;;;;;5013224;28;20109;-81
2022/12/23 08:30:50;;;;;;;58.30;15.85;;;6.60;99.90;;;;;;5018002;28;20770;-81
2022/12/23 08:33:16;;;;;;;61.42;15.65;;;6.60;99.90;;;;;;5011204;28;20053;-81
2022/12/23 08:35:41;;;;;;;65.72;16.85;;;6.60;99.90;;;;;;5011099;28;20500;-82
2022/12/23 08:38:07;;;;;;;66.47;15.82;;;6.60;99.90;;;;;;5034832;28;20034;-81
2022/12/23 08:40:33;;;;;;;91.47;16.73;;;7.10;99.90;;;;;;5026490;28;20400;-81
2022/12/23 08:42:58;;;;;;;171.38;18.75;;;6.60;99.90;;;;;;5018471;28;20042;-81
2022/12/23 08:45:24;;;;;;;75.47;15.48;;;6.60;99.90;;;;;;5018371;28;20030;-81
2022/12/23 08:47:51;;;;;;;81.15;14.18;;;6.50;99.90;;;;;;5016259;28;20455;-81
2022/12/23 08:50:16;;;;;;;109.25;18.02;;;6.50;99.90;;;;;;5012817;28;20073;-81
2022/12/23 08:52:42;;;;;;;87.78;14.82;;;6.50;99.90;;;;;;5013856;28;20121;-81
2022/12/23 08:55:08;;;;;;;132.00;17.20;;;6.50;99.90;;;;;;5016387;28;20060;-83
2022/12/23 08:57:33;;;;;;;95.97;16.40;;;6.40;99.90;;;;;;5017883;28;20030;-83
2022/12/23 08:59:59;;;;;;;159.07;19.13;;;6.50;99.90;;;;;;5012047;28;20038;-81
2022/12/23 09:02:25;;;;;;;65.78;13.20;;;6.50;99.90;;;;;;5035691;28;20040;-81
2022/12/23 09:04:50;;;;;;;99.90;14.68;;;6.50;99.90;;;;;;5014973;28;20156;-81
2022/12/23 09:07:16;;;;;;;98.05;15.48;;;6.50;99.90;;;;;;5025027;28;20072;-81
2022/12/23 09:09:42;;;;;;;191.90;21.65;;;6.50;99.90;;;;;;5013055;28;20050;-81
2022/12/23 09:12:08;;;;;;;97.10;17.98;;;6.60;99.90;;;;;;5015742;28;20038;-80
2022/12/23 09:14:33;;;;;;;130.73;16.52;;;6.60;99.90;;;;;;5017610;28;20511;-82
2022/12/23 09:16:59;;;;;;;125.95;17.10;;;6.60;99.90;;;;;;5031352;28;20073;-81
2022/12/23 09:19:24;;;;;;;108.75;15.70;;;6.60;99.90;;;;;;5000082;28;20037;-81
2022/12/23 09:21:50;;;;;;;114.90;14.98;;;6.60;99.90;;;;;;5014590;28;20400;-81
2022/12/23 09:24:16;;;;;;;85.20;15.07;;;6.70;99.90;;;;;;5019983;28;20562;-81
2022/12/23 09:26:41;;;;;;;79.07;13.82;;;6.70;99.90;;;;;;5020303;28;20425;-81
2022/12/23 09:29:07;;;;;;;112.28;17.58;;;6.70;99.90;;;;;;5016481;28;20793;-81
2022/12/23 09:31:33;;;;;;;56.25;12.98;;;6.80;99.90;;;;;;5037841;28;20034;-81
2022/12/23 09:33:58;;;;;;;46.13;13.02;;;6.80;99.90;;;;;;5023424;28;20041;-81
2022/12/23 09:36:24;;;;;;;104.13;16.02;;;6.80;99.90;;;;;;5021567;28;20101;-81
2022/12/23 09:38:55;;;;;;;52.08;13.95;;;6.80;99.90;;;;;;5019053;28;20037;-80
2022/12/23 09:41:41;;;;;;;51.33;12.20;;;6.80;99.90;;;;;;5016902;28;20500;-81
2022/12/23 09:44:44;;;;;;;47.22;13.50;;;6.80;99.90;;;;;;5015945;28;20057;-81
2022/12/23 09:47:16;;;;;;;32.00;12.27;;;6.90;99.90;;;;;;5017755;28;20484;-81
2022/12/23 09:50:02;;;;;;;37.35;12.23;;;6.90;99.90;;;;;;5030321;28;20084;-81
2022/12/23 09:52:41;;;;;;;41.08;13.82;;;6.90;99.90;;;;;;5014669;28;20068;-81
2022/12/23 09:55:10;;;;;;;42.80;13.70;;;7.20;99.90;;;;;;5017450;28;20512;-81
2022/12/23 09:57:51;;;;;;;29.27;13.10;;;7.00;99.90;;;;;;5029327;28;20125;-81
2022/12/23 10:00:18;;;;;;;43.60;13.40;;;7.10;99.90;;;;;;5015806;28;20053;-81
2022/12/23 10:03:12;;;;;;;47.60;15.75;;;7.10;99.90;;;;;;5018711;28;20046;-81
2022/12/23 10:05:41;;;;;;;33.35;13.75;;;7.20;99.90;;;;;;5020477;28;20037;-81
2022/12/23 10:08:11;;;;;;;31.42;13.13;;;7.40;99.90;;;;;;5015830;28;20086;-81
2022/12/23 10:10:53;;;;;;;31.58;11.95;;;7.30;99.90;;;;;;5015788;28;20479;-81
2022/12/23 10:13:25;;;;;;;26.33;13.30;;;7.30;99.90;;;;;;5020496;28;20041;-81
2022/12/23 10:15:53;;;;;;;29.15;13.75;;;7.30;99.90;;;;;;5016804;28;20049;-81
2022/12/23 10:18:46;;;;;;;31.55;13.30;;;7.30;99.90;;;;;;5018496;28;20032;-81
2022/12/23 10:21:33;;;;;;;27.30;12.18;;;7.40;99.90;;;;;;5027444;28;20053;-81
2022/12/23 10:24:09;;;;;;;29.92;14.32;;;7.40;99.90;;;;;;5017676;28;20038;-81
2022/12/23 10:26:46;;;;;;;35.08;14.07;;;7.40;99.90;;;;;;5013877;28;20040;-81
2022/12/23 10:29:19;;;;;;;33.95;14.35;;;7.40;99.90;;;;;;5013439;28;20030;-81
2022/12/23 10:32:02;;;;;;;27.25;12.35;;;7.40;99.90;;;;;;5019541;28;20080;-81
2022/12/23 10:34:41;;;;;;;27.02;12.02;;;7.40;99.90;;;;;;5016006;28;20048;-81
2022/12/23 10:37:42;;;;;;;26.50;12.10;;;7.40;99.90;;;;;;5013570;28;20072;-81
2022/12/23 10:40:20;;;;;;;26.58;12.50;;;7.50;99.90;;;;;;5012989;28;20115;-81
2022/12/23 10:43:24;;;;;;;22.85;11.60;;;7.50;99.90;;;;;;5021931;28;20499;-81
2022/12/23 10:46:05;;;;;;;25.73;11.75;;;7.50;99.90;;;;;;5017406;28;20073;-81
2022/12/23 10:48:50;;;;;;;24.05;11.25;;;7.50;99.90;;;;;;5021410;28;20045;-81
2022/12/23 10:51:26;;;;;;;22.58;11.13;;;7.60;99.90;;;;;;5015789;28;20046;-81
2022/12/23 10:54:00;;;;;;;21.50;11.43;;;7.60;99.90;;;;;;5020046;28;20050;-81
2022/12/23 10:56:28;;;;;;;29.15;12.38;;;7.60;99.90;;;;;;5033072;28;20096;-81
2022/12/23 10:58:56;;;;;;;26.42;11.80;;;7.60;99.90;;;;;;4997123;28;20400;-81
2022/12/23 11:01:22;;;;;;;24.65;12.23;;;7.60;99.90;;;;;;5017110;28;20497;-82
2022/12/23 11:03:54;;;;;;;23.60;13.02;;;8.10;99.90;;;;;;5018815;28;20103;-82
2022/12/23 11:06:21;;;;;;;25.95;13.68;;;7.60;99.90;;;;;;4995322;28;20485;-82
2022/12/23 11:08:47;;;;;;;21.65;11.32;;;7.60;99.90;;;;;;5014998;28;20096;-81
2022/12/23 11:11:13;;;;;;;30.45;11.57;;;7.60;99.90;;;;;;5024441;28;20041;-82
2022/12/23 11:13:41;;;;;;;27.05;12.18;;;7.60;99.90;;;;;;5021188;28;20040;-83
2022/12/23 11:16:34;;;;;;;25.88;11.40;;;7.60;99.90;;;;;;5023731;28;20033;-82
2022/12/23 11:19:04;;;;;;;23.80;11.43;;;7.60;99.90;;;;;;5009782;28;20061;-82
2022/12/23 11:21:31;;;;;;;26.63;12.23;;;7.60;99.90;;;;;;5012433;28;20030;-82
2022/12/23 11:24:18;;;;;;;25.83;12.75;;;7.70;99.90;;;;;;5014329;28;20266;-82
2022/12/23 11:26:47;;;;;;;27.70;13.30;;;7.70;99.90;;;;;;5014520;28;20061;-84
2022/12/23 11:29:23;;;;;;;31.77;13.55;;;7.70;99.90;;;;;;5015701;28;20038;-83
2022/12/23 11:31:50;;;;;;;26.05;13.18;;;7.70;99.90;;;;;;5022043;28;20476;-83
2022/12/23 11:34:19;;;;;;;28.80;13.95;;;7.70;99.90;;;;;;5017922;28;20560;-82
2022/12/23 11:36:53;;;;;;;26.38;13.00;;;7.80;99.90;;;;;;5003738;28;20088;-84
2022/12/23 11:39:29;;;;;;;23.25;11.30;;;7.80;99.90;;;;;;5019289;28;20038;-83
2022/12/23 11:42:15;;;;;;;26.73;12.35;;;7.80;99.90;;;;;;5016148;28;20085;-82
2022/12/23 11:44:51;;;;;;;27.80;12.95;;;7.80;99.90;;;;;;5019318;28;20038;-82
2022/12/23 11:47:22;;;;;;;29.35;13.25;;;7.80;99.90;;;;;;5021556;28;20045;-83
2022/12/23 11:49:54;;;;;;;23.20;12.93;;;7.80;99.90;;;;;;5011740;28;20054;-81
2022/12/23 11:52:21;;;;;;;22.90;12.15;;;7.80;99.90;;;;;;5017698;28;20049;-83
2022/12/23 11:55:21;;;;;;;25.35;12.60;;;7.80;99.90;;;;;;5012178;28;20129;-81
2022/12/23 11:57:48;;;;;;;23.05;12.02;;;7.80;99.90;;;;;;5017067;28;20314;-82
2022/12/23 12:00:21;;;;;;;23.08;12.18;;;7.90;99.90;;;;;;5019320;28;20033;-82
2022/12/23 12:02:51;;;;;;;22.52;11.95;;;7.80;99.90;;;;;;5022015;28;20034;-82
2022/12/23 12:05:39;;;;;;;26.33;12.95;;;8.20;99.90;;;;;;5010935;28;20034;-83
2022/12/23 12:08:13;;;;;;;23.33;12.32;;;7.80;99.90;;;;;;5026673;28;20061;-83
2022/12/23 12:10:40;;;;;;;24.92;11.63;;;7.80;99.90;;;;;;5016592;28;20096;-83
2022/12/23 12:13:17;;;;;;;24.20;12.38;;;7.90;99.90;;;;;;5016894;28;20050;-83
2022/12/23 12:15:52;;;;;;;24.85;11.15;;;7.90;99.90;;;;;;5018858;28;20266;-83
2022/12/23 12:18:19;;;;;;;23.50;11.38;;;7.90;99.90;;;;;;5022677;28;20034;-83
2022/12/23 12:20:49;;;;;;;22.58;11.38;;;8.10;99.90;;;;;;5014905;28;20064;-83
2022/12/23 12:23:39;;;;;;;20.95;10.70;;;7.90;99.90;;;;;;5018654;28;20049;-82
2022/12/23 12:26:24;;;;;;;22.50;10.75;;;7.90;99.90;;;;;;5013886;28;20029;-83
2022/12/23 12:28:59;;;;;;;21.45;10.45;;;7.90;99.90;;;;;;5014473;28;20044;-84
2022/12/23 12:31:39;;;;;;;24.63;10.68;;;7.90;99.90;;;;;;5012650;28;20044;-81
2022/12/23 12:34:36;;;;;;;24.38;11.52;;;7.90;99.90;;;;;;5015786;28;20042;-81
2022/12/23 12:37:36;;;;;;;22.30;9.43;;;7.90;99.90;;;;;;5008799;28;20046;-81
2022/12/23 12:40:23;;;;;;;21.05;10.27;;;7.90;99.90;;;;;;5016190;28;20104;-81
2022/12/23 12:42:55;;;;;;;26.23;10.73;;;7.90;99.90;;;;;;5017073;28;20124;-81
2022/12/23 12:45:29;;;;;;;20.20;9.50;;;7.90;99.90;;;;;;5010608;28;20498;-81
2022/12/23 12:48:21;;;;;;;23.10;9.63;;;7.90;99.90;;;;;;5014292;28;20485;-81
2022/12/23 12:51:13;;;;;;;22.05;10.55;;;7.90;99.90;;;;;;5019138;28;20488;-81
2022/12/23 12:53:52;;;;;;;25.08;10.40;;;7.90;99.90;;;;;;5026858;28;20120;-81
2022/12/23 12:56:28;;;;;;;22.33;10.13;;;7.90;99.90;;;;;;5000793;28;20044;-81
2022/12/23 12:58:54;;;;;;;26.75;11.18;;;7.90;99.90;;;;;;5024436;28;20037;-81
2022/12/23 13:01:49;;;;;;;21.55;10.70;;;7.90;99.90;;;;;;5022022;28;20072;-81
2022/12/23 13:04:45;;;;;;;26.95;11.50;;;7.90;99.90;;;;;;4999917;28;20042;-81
2022/12/23 13:07:40;;;;;;;29.70;11.13;;;7.90;99.90;;;;;;5020686;28;20117;-81
2022/12/23 13:10:26;;;;;;;24.15;9.75;;;7.90;99.90;;;;;;5019472;28;20049;-81
2022/12/23 13:13:04;;;;;;;28.08;11.48;;;7.90;99.90;;;;;;5028334;28;20041;-81
2022/12/23 13:15:51;;;;;;;25.15;11.07;;;7.90;99.90;;;;;;5021327;28;20073;-81
2022/12/23 13:18:59;;;;;;;23.65;10.35;;;7.90;99.90;;;;;;5020651;28;20083;-81
2022/12/23 13:21:43;;;;;;;26.95;11.00;;;7.90;99.90;;;;;;5021453;28;20045;-81
2022/12/23 13:24:48;;;;;;;23.17;11.07;;;7.90;99.90;;;;;;5022009;28;20109;-81